Cruise inventory

BIO Hesperides HE9308

Cruise plan

Cruise Info. 
Ship name (ship code)BIO Hesperides (29HE)
Cruise identifierHE9308
Cruise period1993-08-06 — 1993-08-27
StatusCompleted
Data held at BODC 
Series/Profiles 
213  CTD/STD cast
Transmittance and attenuance of the water column
Chlorophyll pigment concentrations in water bodies
Vertical spatial coordinates
Salinity of the water column
Temperature of the water column
Reference numbers
Date and time
Dissolved oxygen parameters in the water column
Transmittance and attenuance of the water column
Chlorophyll pigment concentrations in water bodies
Vertical spatial coordinates
Salinity of the water column
Temperature of the water column
Reference numbers
Date and time
Dissolved oxygen parameters in the water column

BODC idDate/TimeLocationDoc.
4834241993-08-07 03:40  — 1993-08-07 03:44:06 28° 14' 3" N  17° 45' 57" W  View metadata report for BODC series reference number 483424
4834361993-08-07 09:49  — 1993-08-07 09:53:10 28° 3' 8" N  17° 34' 54" W  View metadata report for BODC series reference number 483436
4834481993-08-07 12:47  — 1993-08-07 12:51:10 27° 52' 9" N  17° 22' 57" W  View metadata report for BODC series reference number 483448
4834611993-08-07 15:15  — 1993-08-07 15:19:09 27° 40' 43" N  17° 11' 45" W  View metadata report for BODC series reference number 483461
4834731993-08-07 18:10  — 1993-08-07 18:14:10 27° 29' 55" N  17° 0' 20" W  View metadata report for BODC series reference number 483473
4834851993-08-08 03:43  — 1993-08-08 03:47:09 27° 29' 49" N  16° 1' 5" W  View metadata report for BODC series reference number 483485
4834971993-08-08 05:19  — 1993-08-08 05:23:09 27° 29' 54" N  15° 52' 54" W  View metadata report for BODC series reference number 483497
4835041993-08-08 07:38  — 1993-08-08 07:42:09 27° 30' 19" N  15° 44' 58" W  View metadata report for BODC series reference number 483504
4835161993-08-08 13:37  — 1993-08-08 13:41:09 27° 29' 49" N  15° 36' 52" W  View metadata report for BODC series reference number 483516
4835281993-08-08 16:05  — 1993-08-08 16:09:08 27° 29' 52" N  15° 28' 7" W  View metadata report for BODC series reference number 483528
4835411993-08-08 19:03  — 1993-08-08 19:04:15 27° 26' 29" N  15° 42' 3" W  View metadata report for BODC series reference number 483541
4835531993-08-08 19:43  — 1993-08-08 19:44:13 27° 27' 10" N  15° 42' 46" W  View metadata report for BODC series reference number 483553
4835651993-08-08 20:17  — 1993-08-08 20:18:19 27° 27' 52" N  15° 43' 24" W  View metadata report for BODC series reference number 483565
4835771993-08-08 21:05  — 1993-08-08 21:06:14 27° 28' 40" N  15° 44' 8" W  View metadata report for BODC series reference number 483577
4835891993-08-08 21:44  — 1993-08-08 21:45:14 27° 29' 22" N  15° 44' 54" W  View metadata report for BODC series reference number 483589
4835901993-08-08 22:23  — 1993-08-08 22:24:15 27° 30' 13" N  15° 45' 44" W  View metadata report for BODC series reference number 483590
4836081993-08-08 23:13  — 1993-08-08 23:14:17 27° 31' 11" N  15° 46' 18" W  View metadata report for BODC series reference number 483608
4836211993-08-09 00:00  — 1993-08-09 00:01:17 27° 31' 52" N  15° 47' 17" W  View metadata report for BODC series reference number 483621
4836331993-08-09 00:39  — 1993-08-09 00:40:14 27° 32' 21" N  15° 47' 59" W  View metadata report for BODC series reference number 483633
4836451993-08-09 01:20  — 1993-08-09 01:21:13 27° 33' 15" N  15° 48' 42" W  View metadata report for BODC series reference number 483645
4836571993-08-09 01:58  — 1993-08-09 01:59:14 27° 33' 55" N  15° 49' 30" W  View metadata report for BODC series reference number 483657
4836691993-08-09 02:47  — 1993-08-09 02:48:14 27° 34' 37" N  15° 50' 13" W  View metadata report for BODC series reference number 483669
4836701993-08-09 03:27  — 1993-08-09 03:28:13 27° 35' 21" N  15° 51' 6" W  View metadata report for BODC series reference number 483670
4836821993-08-09 04:01  — 1993-08-09 04:02:14 27° 36' 2" N  15° 51' 45" W  View metadata report for BODC series reference number 483682
4836941993-08-09 04:41  — 1993-08-09 04:42:14 27° 36' 49" N  15° 52' 31" W  View metadata report for BODC series reference number 483694
4837011993-08-09 17:20  — 1993-08-09 17:24:10 27° 29' 45" N  15° 19' 33" W  View metadata report for BODC series reference number 483701
4837131993-08-10 00:47  — 1993-08-10 00:51:09 27° 29' 57" N  15° 3' 6" W  View metadata report for BODC series reference number 483713
4837251993-08-10 04:10  — 1993-08-10 04:14:10 27° 29' 58" N  14° 46' 14" W  View metadata report for BODC series reference number 483725
4837371993-08-10 06:55  — 1993-08-10 06:59:09 27° 30' 6" N  14° 29' 0" W  View metadata report for BODC series reference number 483737
4837491993-08-10 09:31  — 1993-08-10 09:35:08 27° 29' 59" N  14° 12' 31" W  View metadata report for BODC series reference number 483749
4837501993-08-10 12:22:59  — 1993-08-10 12:27:10 27° 30' 0" N  13° 55' 28" W  View metadata report for BODC series reference number 483750
4837621993-08-10 16:01  — 1993-08-10 16:02:41 27° 30' 1" N  13° 39' 3" W  View metadata report for BODC series reference number 483762
4837741993-08-10 17:07  — 1993-08-10 17:08:15 27° 30' 13" N  13° 39' 26" W  View metadata report for BODC series reference number 483774
4837861993-08-10 20:51  — 1993-08-10 20:54:44 27° 21' 0" N  13° 44' 57" W  View metadata report for BODC series reference number 483786
4837981993-08-10 22:53  — 1993-08-10 22:57:09 27° 12' 53" N  13° 52' 30" W  View metadata report for BODC series reference number 483798
4838051993-08-11 01:14  — 1993-08-11 01:18:11 27° 5' 37" N  13° 59' 58" W  View metadata report for BODC series reference number 483805
4838171993-08-11 03:03  — 1993-08-11 03:04:14 27° 3' 45" N  14° 1' 40" W  View metadata report for BODC series reference number 483817
4838291993-08-11 03:36  — 1993-08-11 03:37:14 27° 2' 15" N  14° 2' 55" W  View metadata report for BODC series reference number 483829
4838301993-08-11 04:13:59  — 1993-08-11 04:15:15 27° 0' 41" N  14° 4' 34" W  View metadata report for BODC series reference number 483830
4838421993-08-11 04:52  — 1993-08-11 04:53:14 26° 59' 1" N  14° 6' 10" W  View metadata report for BODC series reference number 483842
4838541993-08-11 05:26  — 1993-08-11 05:29:21 26° 57' 52" N  14° 7' 49" W  View metadata report for BODC series reference number 483854
4838661993-08-11 07:01  — 1993-08-11 07:02:14 26° 56' 12" N  14° 8' 49" W  View metadata report for BODC series reference number 483866
4838781993-08-11 08:05  — 1993-08-11 08:06:14 26° 54' 37" N  14° 10' 22" W  View metadata report for BODC series reference number 483878
4838911993-08-11 08:55  — 1993-08-11 08:56:15 26° 52' 50" N  14° 11' 48" W  View metadata report for BODC series reference number 483891
4839091993-08-11 09:36  — 1993-08-11 09:37:14 26° 51' 16" N  14° 13' 10" W  View metadata report for BODC series reference number 483909
4839101993-08-11 11:43  — 1993-08-11 11:43:23 26° 46' 25" N  14° 1' 11" W  View metadata report for BODC series reference number 483910
4839221993-08-11 14:00  — 1993-08-11 14:04:11 26° 49' 59" N  14° 14' 43" W  View metadata report for BODC series reference number 483922
4839341993-08-11 16:00  — 1993-08-11 16:03:21 26° 42' 17" N  14° 22' 3" W  View metadata report for BODC series reference number 483934
4839461993-08-11 18:02  — 1993-08-11 18:04:29 26° 35' 3" N  14° 28' 59" W  View metadata report for BODC series reference number 483946
4839581993-08-11 20:54  — 1993-08-11 20:58:10 26° 35' 6" N  14° 50' 52" W  View metadata report for BODC series reference number 483958
4839711993-08-11 22:54  — 1993-08-11 22:58:10 26° 42' 14" N  14° 43' 57" W  View metadata report for BODC series reference number 483971
4852091993-08-21 05:10  — 1993-08-21 05:12:04 27° 16' 30" N  16° 16' 59" W  View metadata report for BODC series reference number 485209
4852101993-08-21 08:10  — 1993-08-21 08:12:05 27° 16' 38" N  16° 18' 17" W  View metadata report for BODC series reference number 485210
4852221993-08-21 09:03  — 1993-08-21 09:05:04 27° 16' 40" N  16° 18' 49" W  View metadata report for BODC series reference number 485222
4852341993-08-21 10:10  — 1993-08-21 10:12:06 27° 16' 44" N  16° 19' 19" W  View metadata report for BODC series reference number 485234
4852461993-08-21 11:00  — 1993-08-21 11:02:06 27° 16' 50" N  16° 19' 56" W  View metadata report for BODC series reference number 485246
4852581993-08-20 21:21  — 1993-08-20 21:25:09 27° 16' 37" N  16° 17' 12" W  View metadata report for BODC series reference number 485258
4852711993-08-23 09:16  — 1993-08-23 09:16:50 27° 32' 33" N  17° 24' 37" W  View metadata report for BODC series reference number 485271
4852831993-08-23 18:24  — 1993-08-23 18:24:49 26° 21' 36" N  16° 9' 46" W  View metadata report for BODC series reference number 485283
4852951993-08-24 00:20  — 1993-08-24 00:24:08 26° 43' 49" N  16° 29' 44" W  View metadata report for BODC series reference number 485295
4853021993-08-24 01:58  — 1993-08-24 02:02:09 26° 46' 18" N  16° 28' 53" W  View metadata report for BODC series reference number 485302
4853141993-08-24 03:48:59  — 1993-08-24 03:53:10 26° 48' 37" N  16° 27' 44" W  View metadata report for BODC series reference number 485314
4853261993-08-24 05:17  — 1993-08-24 05:21:10 26° 51' 5" N  16° 26' 31" W  View metadata report for BODC series reference number 485326
4853381993-08-24 08:11  — 1993-08-24 08:15:09 26° 55' 49" N  16° 23' 48" W  View metadata report for BODC series reference number 485338
4853511993-08-24 10:53  — 1993-08-24 10:57:09 26° 45' 29" N  16° 16' 14" W  View metadata report for BODC series reference number 485351
4853631993-08-24 12:18  — 1993-08-24 12:22:09 26° 46' 39" N  16° 19' 1" W  View metadata report for BODC series reference number 485363
4853751993-08-24 13:54  — 1993-08-24 13:58:09 26° 48' 1" N  16° 21' 22" W  View metadata report for BODC series reference number 485375
4853871993-08-24 15:16  — 1993-08-24 15:20:09 26° 49' 10" N  16° 24' 1" W  View metadata report for BODC series reference number 485387
4853991993-08-24 16:32  — 1993-08-24 16:36:09 26° 50' 0" N  16° 26' 43" W  View metadata report for BODC series reference number 485399
4854061993-08-24 20:31  — 1993-08-24 20:35:09 26° 48' 46" N  16° 30' 27" W  View metadata report for BODC series reference number 485406
4854181993-08-24 22:08  — 1993-08-24 22:12:09 26° 50' 4" N  16° 33' 7" W  View metadata report for BODC series reference number 485418
4854311993-08-24 23:40  — 1993-08-24 23:44:09 26° 50' 46" N  16° 35' 43" W  View metadata report for BODC series reference number 485431
4854431993-08-25 01:52:59  — 1993-08-25 01:55:04 26° 48' 46" N  16° 30' 33" W  View metadata report for BODC series reference number 485443
4854551993-08-25 03:00  — 1993-08-25 03:02:04 26° 48' 43" N  16° 30' 38" W  View metadata report for BODC series reference number 485455
4854671993-08-25 04:11  — 1993-08-25 04:13:07 26° 48' 34" N  16° 31' 29" W  View metadata report for BODC series reference number 485467
4854791993-08-25 05:13  — 1993-08-25 05:15:04 26° 48' 45" N  16° 30' 38" W  View metadata report for BODC series reference number 485479
4854801993-08-25 06:26  — 1993-08-25 06:28:05 26° 48' 45" N  16° 30' 37" W  View metadata report for BODC series reference number 485480
4854921993-08-25 07:32  — 1993-08-25 07:34:04 26° 48' 33" N  16° 30' 51" W  View metadata report for BODC series reference number 485492
4855111993-08-25 08:38  — 1993-08-25 08:40:05 26° 48' 44" N  16° 30' 39" W  View metadata report for BODC series reference number 485511
4855231993-08-25 09:27  — 1993-08-25 09:29:06 26° 48' 44" N  16° 30' 36" W  View metadata report for BODC series reference number 485523
4855351993-08-25 10:38  — 1993-08-25 10:40:04 26° 48' 45" N  16° 30' 29" W  View metadata report for BODC series reference number 485535
4855471993-08-25 11:34  — 1993-08-25 11:36:04 26° 48' 49" N  16° 30' 24" W  View metadata report for BODC series reference number 485547
4855591993-08-25 12:34  — 1993-08-25 12:36:04 26° 48' 49" N  16° 30' 30" W  View metadata report for BODC series reference number 485559
4855601993-08-25 13:36  — 1993-08-25 13:38:05 26° 48' 47" N  16° 30' 42" W  View metadata report for BODC series reference number 485560
4855721993-08-25 14:34  — 1993-08-25 14:36:04 26° 49' 43" N  16° 30' 37" W  View metadata report for BODC series reference number 485572
4855841993-08-25 15:37  — 1993-08-25 15:39:04 26° 48' 45" N  16° 30' 26" W  View metadata report for BODC series reference number 485584
4855961993-08-25 16:39:59  — 1993-08-25 16:42:05 26° 48' 36" N  16° 31' 41" W  View metadata report for BODC series reference number 485596
4856031993-08-25 17:33  — 1993-08-25 17:35:05 26° 48' 15" N  16° 32' 29" W  View metadata report for BODC series reference number 485603
4856151993-08-25 18:44  — 1993-08-25 18:46:04 26° 48' 47" N  16° 30' 33" W  View metadata report for BODC series reference number 485615
4856271993-08-25 19:34  — 1993-08-25 19:36:06 26° 48' 42" N  16° 30' 26" W  View metadata report for BODC series reference number 485627
4856391993-08-25 20:38  — 1993-08-25 20:40:05 26° 48' 43" N  16° 30' 31" W  View metadata report for BODC series reference number 485639
4856401993-08-25 21:33  — 1993-08-25 21:35:04 26° 48' 32" N  16° 30' 42" W  View metadata report for BODC series reference number 485640
4856521993-08-25 22:34  — 1993-08-25 22:36:05 26° 48' 43" N  16° 30' 27" W  View metadata report for BODC series reference number 485652
4856641993-08-25 23:29  — 1993-08-25 23:31:07 26° 48' 41" N  16° 30' 35" W  View metadata report for BODC series reference number 485664
4856761993-08-26 00:37  — 1993-08-26 00:39:05 26° 48' 35" N  16° 30' 40" W  View metadata report for BODC series reference number 485676
4856881993-08-26 01:26  — 1993-08-26 01:28:04 26° 48' 38" N  16° 30' 31" W  View metadata report for BODC series reference number 485688
4857071993-08-26 10:29  — 1993-08-26 10:29:48 26° 39' 6" N  16° 24' 12" W  View metadata report for BODC series reference number 485707
4846001993-08-17 02:02  — 1993-08-17 02:02:49 27° 43' 5" N  15° 46' 45" W  View metadata report for BODC series reference number 484600
4846121993-08-17 02:59  — 1993-08-17 02:59:48 27° 43' 8" N  15° 46' 54" W  View metadata report for BODC series reference number 484612
4846241993-08-17 03:57  — 1993-08-17 03:57:49 27° 43' 8" N  15° 46' 48" W  View metadata report for BODC series reference number 484624
4846361993-08-17 04:56  — 1993-08-17 04:56:40 27° 43' 11" N  15° 46' 48" W  View metadata report for BODC series reference number 484636
4846481993-08-17 05:55  — 1993-08-17 05:55:42 27° 43' 11" N  15° 46' 41" W  View metadata report for BODC series reference number 484648
4846611993-08-17 06:57  — 1993-08-17 06:57:47 27° 43' 8" N  15° 46' 43" W  View metadata report for BODC series reference number 484661
4846731993-08-17 07:58  — 1993-08-17 07:58:36 27° 43' 7" N  15° 46' 36" W  View metadata report for BODC series reference number 484673
4846851993-08-17 08:57  — 1993-08-17 08:58:14 27° 42' 40" N  15° 46' 43" W  View metadata report for BODC series reference number 484685
4846971993-08-17 15:27  — 1993-08-17 15:28:14 27° 35' 57" N  15° 51' 31" W  View metadata report for BODC series reference number 484697
4847041993-08-17 16:07  — 1993-08-17 16:08:14 27° 37' 23" N  15° 53' 16" W  View metadata report for BODC series reference number 484704
4847161993-08-17 16:59  — 1993-08-17 17:00:14 27° 38' 59" N  15° 54' 48" W  View metadata report for BODC series reference number 484716
4847281993-08-17 17:45  — 1993-08-17 17:46:14 27° 40' 25" N  15° 56' 22" W  View metadata report for BODC series reference number 484728
4847411993-08-17 18:38  — 1993-08-17 18:39:14 27° 41' 55" N  15° 57' 56" W  View metadata report for BODC series reference number 484741
4847531993-08-17 19:07  — 1993-08-17 19:07:48 27° 41' 55" N  15° 57' 56" W  View metadata report for BODC series reference number 484753
4847651993-08-17 19:51  — 1993-08-17 19:52:14 27° 43' 35" N  15° 59' 56" W  View metadata report for BODC series reference number 484765
4847771993-08-17 20:38  — 1993-08-17 20:40:04 27° 45' 0" N  16° 2' 1" W  View metadata report for BODC series reference number 484777
4847891993-08-17 21:24  — 1993-08-17 21:25:14 27° 46' 30" N  16° 3' 27" W  View metadata report for BODC series reference number 484789
4847901993-08-17 22:06  — 1993-08-17 22:07:14 27° 47' 58" N  16° 5' 30" W  View metadata report for BODC series reference number 484790
4848081993-08-17 22:49  — 1993-08-17 22:50:14 27° 49' 25" N  16° 6' 55" W  View metadata report for BODC series reference number 484808
4848211993-08-17 23:30  — 1993-08-17 23:31:14 27° 51' 1" N  16° 9' 3" W  View metadata report for BODC series reference number 484821
4848331993-08-18 00:05  — 1993-08-18 00:07:04 27° 51' 42" N  16° 10' 33" W  View metadata report for BODC series reference number 484833
4848451993-08-18 01:47:59  — 1993-08-18 01:49:22 27° 52' 27" N  15° 55' 11" W  View metadata report for BODC series reference number 484845
4848571993-08-18 03:08  — 1993-08-18 03:10:04 27° 59' 57" N  15° 55' 52" W  View metadata report for BODC series reference number 484857
4848691993-08-18 04:38  — 1993-08-18 04:42:09 27° 58' 52" N  16° 3' 28" W  View metadata report for BODC series reference number 484869
4848701993-08-18 07:05:59  — 1993-08-18 07:10:09 28° 8' 6" N  16° 11' 28" W  View metadata report for BODC series reference number 484870
4848821993-08-18 10:27  — 1993-08-18 10:31:09 28° 4' 41" N  16° 25' 51" W  View metadata report for BODC series reference number 484882
4848941993-08-18 13:52:59  — 1993-08-18 13:57:09 27° 58' 16" N  16° 18' 56" W  View metadata report for BODC series reference number 484894
4849011993-08-18 15:13  — 1993-08-18 15:15:05 27° 55' 10" N  16° 17' 27" W  View metadata report for BODC series reference number 484901
4849131993-08-18 17:40  — 1993-08-18 17:42:04 27° 50' 58" N  16° 25' 52" W  View metadata report for BODC series reference number 484913
4849251993-08-18 19:52  — 1993-08-18 19:54:04 27° 43' 32" N  16° 32' 37" W  View metadata report for BODC series reference number 484925
4849371993-08-18 23:48  — 1993-08-18 23:50:04 27° 35' 53" N  16° 39' 25" W  View metadata report for BODC series reference number 484937
4849491993-08-19 01:50  — 1993-08-19 01:52:04 27° 21' 15" N  16° 38' 19" W  View metadata report for BODC series reference number 484949
4849501993-08-19 03:33  — 1993-08-19 03:35:04 27° 14' 28" N  16° 30' 7" W  View metadata report for BODC series reference number 484950
4849621993-08-19 05:15  — 1993-08-19 05:17:04 27° 7' 37" N  16° 21' 53" W  View metadata report for BODC series reference number 484962
4849741993-08-19 07:21  — 1993-08-19 07:23:12 27° 8' 4" N  16° 6' 23" W  View metadata report for BODC series reference number 484974
4849861993-08-19 09:13  — 1993-08-19 09:15:04 27° 15' 26" N  16° 15' 0" W  View metadata report for BODC series reference number 484986
4849981993-08-19 12:40  — 1993-08-19 12:42:04 27° 28' 52" N  16° 31' 44" W  View metadata report for BODC series reference number 484998
4850011993-08-19 14:26  — 1993-08-19 14:28:04 27° 36' 18" N  16° 24' 38" W  View metadata report for BODC series reference number 485001
4850131993-08-19 16:06  — 1993-08-19 16:08:05 27° 30' 1" N  16° 16' 16" W  View metadata report for BODC series reference number 485013
4850251993-08-19 17:40  — 1993-08-19 17:42:05 27° 22' 47" N  16° 8' 14" W  View metadata report for BODC series reference number 485025
4850371993-08-19 19:24  — 1993-08-19 19:26:04 27° 22' 20" N  16° 23' 19" W  View metadata report for BODC series reference number 485037
4850491993-08-19 20:16  — 1993-08-19 20:18:05 27° 20' 32" N  16° 20' 58" W  View metadata report for BODC series reference number 485049
4850501993-08-19 21:06  — 1993-08-19 21:08:05 27° 18' 35" N  16° 19' 0" W  View metadata report for BODC series reference number 485050
4850621993-08-19 22:00  — 1993-08-19 22:02:07 27° 16' 36" N  16° 17' 3" W  View metadata report for BODC series reference number 485062
4850741993-08-20 02:11  — 1993-08-20 02:13:04 27° 16' 0" N  15° 59' 1" W  View metadata report for BODC series reference number 485074
4850861993-08-20 03:47  — 1993-08-20 03:49:04 27° 23' 28" N  15° 52' 40" W  View metadata report for BODC series reference number 485086
4850981993-08-20 05:24  — 1993-08-20 05:26:04 27° 30' 6" N  16° 1' 4" W  View metadata report for BODC series reference number 485098
4851051993-08-20 07:11  — 1993-08-20 07:13:05 27° 37' 9" N  16° 9' 3" W  View metadata report for BODC series reference number 485105
4851171993-08-21 06:43  — 1993-08-21 06:45:05 27° 16' 37" N  16° 17' 25" W  View metadata report for BODC series reference number 485117
4851291993-08-20 08:42  — 1993-08-20 08:44:06 27° 44' 14" N  16° 17' 13" W  View metadata report for BODC series reference number 485129
4851301993-08-20 23:06  — 1993-08-20 23:08:06 27° 16' 33" N  16° 17' 1" W  View metadata report for BODC series reference number 485130
4851421993-08-21 00:08  — 1993-08-21 00:10:04 27° 16' 28" N  16° 17' 5" W  View metadata report for BODC series reference number 485142
4851541993-08-21 01:08  — 1993-08-21 01:10:04 27° 16' 31" N  16° 17' 5" W  View metadata report for BODC series reference number 485154
4851661993-08-21 02:02  — 1993-08-21 02:04:03 27° 16' 25" N  16° 17' 4" W  View metadata report for BODC series reference number 485166
4851781993-08-21 03:13  — 1993-08-21 03:15:04 27° 16' 32" N  16° 16' 57" W  View metadata report for BODC series reference number 485178
4851911993-08-21 04:01:59  — 1993-08-21 04:04:06 27° 16' 30" N  16° 17' 11" W  View metadata report for BODC series reference number 485191
4839831993-08-12 01:26  — 1993-08-12 01:30:09 26° 49' 52" N  14° 36' 47" W  View metadata report for BODC series reference number 483983
4839951993-08-12 03:30  — 1993-08-12 03:34:09 26° 56' 8" N  14° 27' 42" W  View metadata report for BODC series reference number 483995
4840091993-08-12 09:01  — 1993-08-12 09:05:10 27° 10' 36" N  14° 18' 29" W  View metadata report for BODC series reference number 484009
4840101993-08-12 10:29  — 1993-08-12 10:30:16 27° 11' 49" N  14° 17' 44" W  View metadata report for BODC series reference number 484010
4840221993-08-12 09:01  — 1993-08-12 09:05:08 27° 5' 27" N  14° 23' 4" W  View metadata report for BODC series reference number 484022
4840341993-08-12 12:59  — 1993-08-12 13:00:16 27° 14' 26" N  14° 14' 58" W  View metadata report for BODC series reference number 484034
4840461993-08-12 13:52:59  — 1993-08-12 13:54:15 27° 16' 21" N  14° 13' 25" W  View metadata report for BODC series reference number 484046
4840581993-08-12 14:34  — 1993-08-12 14:35:14 27° 17' 57" N  14° 11' 50" W  View metadata report for BODC series reference number 484058
4840711993-08-12 15:06  — 1993-08-12 15:07:20 27° 19' 19" N  14° 10' 18" W  View metadata report for BODC series reference number 484071
4840831993-08-12 11:30  — 1993-08-12 11:34:11 27° 13' 2" N  14° 15' 58" W  View metadata report for BODC series reference number 484083
4840951993-08-12 15:50  — 1993-08-12 15:54:10 27° 21' 2" N  14° 9' 6" W  View metadata report for BODC series reference number 484095
4841021993-08-12 17:54:59  — 1993-08-12 17:59:09 27° 28' 0" N  14° 1' 57" W  View metadata report for BODC series reference number 484102
4841141993-08-12 20:13  — 1993-08-12 20:17:09 27° 36' 55" N  13° 55' 0" W  View metadata report for BODC series reference number 484114
4841261993-08-12 23:36  — 1993-08-12 23:40:24 27° 37' 0" N  14° 16' 57" W  View metadata report for BODC series reference number 484126
4841381993-08-13 01:47  — 1993-08-13 01:51:10 27° 28' 11" N  14° 24' 7" W  View metadata report for BODC series reference number 484138
4841511993-08-13 03:34  — 1993-08-13 03:38:10 27° 21' 1" N  14° 31' 3" W  View metadata report for BODC series reference number 484151
4841631993-08-13 05:50  — 1993-08-13 05:54:09 27° 13' 1" N  14° 37' 58" W  View metadata report for BODC series reference number 484163
4841751993-08-13 07:48  — 1993-08-13 07:52:10 27° 5' 31" N  14° 45' 1" W  View metadata report for BODC series reference number 484175
4841871993-08-13 09:49  — 1993-08-13 09:53:11 26° 57' 49" N  14° 52' 1" W  View metadata report for BODC series reference number 484187
4841991993-08-13 12:08  — 1993-08-13 12:12:09 26° 49' 58" N  14° 59' 7" W  View metadata report for BODC series reference number 484199
4842061993-08-13 14:09  — 1993-08-13 14:13:15 26° 42' 19" N  15° 5' 58" W  View metadata report for BODC series reference number 484206
4842181993-08-13 16:18  — 1993-08-13 16:22:09 26° 35' 2" N  15° 13' 2" W  View metadata report for BODC series reference number 484218
4842311993-08-13 19:15  — 1993-08-13 19:19:12 26° 34' 57" N  15° 36' 1" W  View metadata report for BODC series reference number 484231
4842431993-08-13 21:42  — 1993-08-13 21:46:10 26° 42' 4" N  15° 29' 11" W  View metadata report for BODC series reference number 484243
4842551993-08-14 03:09  — 1993-08-14 03:10:15 26° 53' 52" N  15° 18' 1" W  View metadata report for BODC series reference number 484255
4842671993-08-14 00:28  — 1993-08-14 00:32:08 26° 50' 4" N  15° 22' 11" W  View metadata report for BODC series reference number 484267
4842791993-08-14 06:59  — 1993-08-14 07:00:15 27° 1' 27" N  15° 11' 3" W  View metadata report for BODC series reference number 484279
4842801993-08-14 04:35  — 1993-08-14 04:39:09 26° 57' 44" N  15° 15' 3" W  View metadata report for BODC series reference number 484280
4842921993-08-14 10:28  — 1993-08-14 10:29:15 27° 9' 2" N  15° 4' 9" W  View metadata report for BODC series reference number 484292
4843111993-08-14 08:19  — 1993-08-14 08:22:45 27° 5' 25" N  15° 8' 7" W  View metadata report for BODC series reference number 484311
4843231993-08-14 13:43  — 1993-08-14 13:44:13 27° 17' 5" N  14° 57' 9" W  View metadata report for BODC series reference number 484323
4843351993-08-14 11:46  — 1993-08-14 11:50:06 27° 12' 53" N  15° 1' 23" W  View metadata report for BODC series reference number 484335
4843471993-08-14 17:03  — 1993-08-14 17:04:14 27° 24' 43" N  14° 49' 45" W  View metadata report for BODC series reference number 484347
4843591993-08-14 14:57  — 1993-08-14 15:01:10 27° 20' 57" N  14° 54' 11" W  View metadata report for BODC series reference number 484359
4843601993-08-14 18:04  — 1993-08-14 18:08:09 27° 28' 7" N  14° 47' 5" W  View metadata report for BODC series reference number 484360
4843721993-08-14 21:05  — 1993-08-14 21:09:10 27° 36' 57" N  14° 40' 7" W  View metadata report for BODC series reference number 484372
4843841993-08-15 00:51  — 1993-08-15 00:55:10 27° 37' 0" N  15° 1' 7" W  View metadata report for BODC series reference number 484384
4843961993-08-15 03:06  — 1993-08-15 03:10:06 27° 28' 7" N  15° 8' 4" W  View metadata report for BODC series reference number 484396
4844031993-08-15 05:44  — 1993-08-15 05:48:09 27° 20' 59" N  15° 15' 8" W  View metadata report for BODC series reference number 484403
4844151993-08-15 07:44  — 1993-08-15 07:48:10 27° 12' 55" N  15° 22' 20" W  View metadata report for BODC series reference number 484415
4844271993-08-15 12:06  — 1993-08-15 12:10:08 27° 5' 29" N  15° 29' 49" W  View metadata report for BODC series reference number 484427
4844391993-08-15 15:03  — 1993-08-15 15:07:10 26° 57' 43" N  15° 35' 55" W  View metadata report for BODC series reference number 484439
4844401993-08-15 16:49  — 1993-08-15 16:53:10 26° 49' 58" N  15° 42' 53" W  View metadata report for BODC series reference number 484440
4844521993-08-15 18:42  — 1993-08-15 18:46:10 26° 42' 13" N  15° 49' 54" W  View metadata report for BODC series reference number 484452
4844641993-08-15 21:51  — 1993-08-15 21:55:10 26° 42' 22" N  16° 11' 58" W  View metadata report for BODC series reference number 484464
4844761993-08-16 01:03  — 1993-08-16 01:07:08 26° 49' 49" N  16° 5' 3" W  View metadata report for BODC series reference number 484476
4844881993-08-16 07:17  — 1993-08-16 07:21:09 27° 5' 19" N  15° 51' 7" W  View metadata report for BODC series reference number 484488
4845071993-08-16 10:00  — 1993-08-16 10:04:08 27° 12' 52" N  15° 44' 21" W  View metadata report for BODC series reference number 484507
4845191993-08-16 12:46  — 1993-08-16 12:50:07 27° 21' 3" N  15° 37' 23" W  View metadata report for BODC series reference number 484519
4845201993-08-16 15:20  — 1993-08-16 15:23:46 27° 28' 12" N  15° 30' 10" W  View metadata report for BODC series reference number 484520
4845321993-08-16 17:51  — 1993-08-16 17:55:07 27° 36' 57" N  15° 23' 3" W  View metadata report for BODC series reference number 484532
4845441993-08-16 20:50  — 1993-08-16 20:51:06 27° 43' 3" N  15° 46' 46" W  View metadata report for BODC series reference number 484544
4845561993-08-16 22:01  — 1993-08-16 22:02:11 27° 42' 42" N  15° 46' 37" W  View metadata report for BODC series reference number 484556
4845681993-08-16 22:55:59  — 1993-08-16 22:56:49 27° 43' 13" N  15° 46' 46" W  View metadata report for BODC series reference number 484568
4845811993-08-17 00:02  — 1993-08-17 00:02:49 27° 43' 9" N  15° 46' 36" W  View metadata report for BODC series reference number 484581
4845931993-08-17 01:01:59  — 1993-08-17 01:02:49 27° 43' 12" N  15° 46' 39" W  View metadata report for BODC series reference number 484593
4833811993-08-06 12:01  — 1993-08-06 12:05:15 28° 59' 53" N  18° 35' 28" W  View metadata report for BODC series reference number 483381
4833931993-08-06 16:42  — 1993-08-06 16:46:09 28° 47' 1" N  18° 21' 1" W  View metadata report for BODC series reference number 483393
4834001993-08-06 20:50  — 1993-08-06 20:54:09 28° 35' 55" N  18° 8' 57" W  View metadata report for BODC series reference number 483400
4834121993-08-07 01:01  — 1993-08-07 01:05:10 28° 25' 1" N  17° 57' 29" W  View metadata report for BODC series reference number 483412